createdAt,value
2023-01-31T00:00:40.306Z,2
2023-01-31T00:01:40.355Z,2
2023-01-31T00:02:40.348Z,3
2023-01-31T00:03:40.388Z,2
2023-01-31T00:04:40.314Z,3
2023-01-31T00:05:40.302Z,2
2023-01-31T00:06:40.319Z,2
2023-01-31T00:07:40.342Z,3
2023-01-31T00:08:40.343Z,3
2023-01-31T00:09:40.353Z,3
2023-01-31T00:10:40.340Z,2
2023-01-31T00:11:40.346Z,3
2023-01-31T00:12:40.341Z,3
2023-01-31T00:13:40.373Z,3
2023-01-31T00:14:40.316Z,3
2023-01-31T00:15:40.422Z,2
2023-01-31T00:16:40.309Z,3
2023-01-31T00:17:40.317Z,3
2023-01-31T00:18:40.684Z,2
2023-01-31T00:19:40.324Z,2
2023-01-31T00:20:40.331Z,3
2023-01-31T00:21:40.309Z,3
2023-01-31T00:22:40.334Z,2
2023-01-31T00:23:40.341Z,2
2023-01-31T00:24:40.324Z,3
2023-01-31T00:25:40.309Z,3
2023-01-31T00:26:40.390Z,3
2023-01-31T00:27:40.365Z,3
2023-01-31T00:28:40.337Z,3
2023-01-31T00:29:40.319Z,3
2023-01-31T00:30:40.318Z,3
2023-01-31T00:31:47.004Z,3
2023-01-31T00:32:40.330Z,3
2023-01-31T00:33:40.299Z,3
2023-01-31T00:34:40.303Z,3
2023-01-31T00:35:40.305Z,3
2023-01-31T00:36:40.306Z,3
2023-01-31T00:37:40.320Z,3
2023-01-31T00:38:40.326Z,3
2023-01-31T00:39:40.348Z,3
2023-01-31T00:40:40.308Z,2
2023-01-31T00:41:40.435Z,3
2023-01-31T00:42:40.347Z,3
2023-01-31T00:43:40.309Z,3
2023-01-31T00:44:40.315Z,3
2023-01-31T00:45:40.320Z,3
2023-01-31T00:46:40.356Z,3
2023-01-31T00:47:40.323Z,3
2023-01-31T00:48:40.347Z,3
2023-01-31T00:49:40.308Z,3
2023-01-31T00:50:40.306Z,3
2023-01-31T00:51:40.301Z,3
2023-01-31T00:52:40.380Z,4
2023-01-31T00:53:40.309Z,4
2023-01-31T00:54:40.308Z,3
2023-01-31T00:55:40.306Z,3
2023-01-31T00:56:40.296Z,3
2023-01-31T00:57:40.340Z,3
2023-01-31T00:58:40.306Z,3
2023-01-31T00:59:40.298Z,3
2023-01-31T01:00:40.441Z,3
2023-01-31T01:01:40.362Z,4
2023-01-31T01:02:40.314Z,3
2023-01-31T01:03:40.308Z,3
2023-01-31T01:04:40.299Z,3
2023-01-31T01:05:40.298Z,3
2023-01-31T01:06:40.299Z,3
2023-01-31T01:07:40.329Z,3
2023-01-31T01:08:40.309Z,3
2023-01-31T01:09:40.316Z,3
2023-01-31T01:10:40.304Z,3
2023-01-31T01:11:40.312Z,3
2023-01-31T01:12:40.344Z,3
2023-01-31T01:13:40.344Z,3
2023-01-31T01:14:40.308Z,3
2023-01-31T01:15:40.300Z,3
2023-01-31T01:16:40.363Z,3
2023-01-31T01:17:40.333Z,3
2023-01-31T01:18:40.328Z,3
2023-01-31T01:19:40.320Z,3
2023-01-31T01:20:40.322Z,3
2023-01-31T01:21:40.300Z,3
2023-01-31T01:22:40.311Z,3
2023-01-31T01:23:40.305Z,3
2023-01-31T01:24:40.343Z,3
2023-01-31T01:25:40.304Z,3
2023-01-31T01:26:40.383Z,3
2023-01-31T01:27:40.330Z,3
2023-01-31T01:28:40.308Z,3
2023-01-31T01:29:40.304Z,3
2023-01-31T01:30:40.311Z,3
2023-01-31T01:32:40.322Z,3
2023-01-31T01:33:40.320Z,3
2023-01-31T01:34:40.329Z,3
2023-01-31T01:35:40.310Z,3
2023-01-31T01:36:40.357Z,3
2023-01-31T01:37:40.298Z,3
2023-01-31T01:38:40.302Z,3
2023-01-31T01:39:40.325Z,3
2023-01-31T01:40:40.325Z,3
2023-01-31T01:41:40.309Z,3
2023-01-31T01:42:40.304Z,3
2023-01-31T01:43:40.305Z,3
2023-01-31T01:45:40.350Z,3
2023-01-31T01:46:40.294Z,2
2023-01-31T01:47:40.315Z,3
2023-01-31T01:48:40.320Z,3
2023-01-31T01:49:40.329Z,3
2023-01-31T01:50:40.304Z,3
2023-01-31T01:51:40.301Z,2
2023-01-31T01:52:40.305Z,2
2023-01-31T01:53:40.329Z,2
2023-01-31T01:54:40.301Z,3
2023-01-31T01:55:40.311Z,2
2023-01-31T01:56:40.316Z,3
2023-01-31T01:57:40.300Z,2
2023-01-31T01:58:40.389Z,2
2023-01-31T01:59:40.494Z,3
2023-01-31T02:00:40.404Z,2
2023-01-31T02:01:40.310Z,2
2023-01-31T02:02:40.312Z,3
2023-01-31T02:03:40.318Z,2
2023-01-31T02:04:40.292Z,2
2023-01-31T02:05:40.308Z,2
2023-01-31T02:06:40.314Z,2
2023-01-31T02:07:41.847Z,2
2023-01-31T02:08:40.313Z,2
2023-01-31T02:09:40.307Z,2
2023-01-31T02:10:40.302Z,2
2023-01-31T02:11:40.309Z,2
2023-01-31T02:12:40.308Z,3
2023-01-31T02:13:40.325Z,2
2023-01-31T02:14:40.293Z,3
2023-01-31T02:15:40.294Z,2
2023-01-31T02:16:40.366Z,2
2023-01-31T02:17:40.307Z,2
2023-01-31T02:18:40.315Z,2
2023-01-31T02:19:40.326Z,2
2023-01-31T02:20:40.301Z,2
2023-01-31T02:21:40.302Z,2
2023-01-31T02:22:40.293Z,2
2023-01-31T02:23:40.331Z,2
2023-01-31T02:24:40.298Z,2
2023-01-31T02:25:40.338Z,2
2023-01-31T02:26:40.302Z,2
2023-01-31T02:27:40.313Z,2
2023-01-31T02:28:40.318Z,2
2023-01-31T02:29:40.445Z,2
2023-01-31T02:30:40.300Z,2
2023-01-31T02:32:40.318Z,2
2023-01-31T02:33:40.314Z,2
2023-01-31T02:34:40.303Z,3
2023-01-31T02:35:40.310Z,3
2023-01-31T02:36:40.302Z,3
2023-01-31T02:37:40.314Z,2
2023-01-31T02:38:40.296Z,3
2023-01-31T02:39:40.329Z,3
2023-01-31T02:41:40.313Z,2
2023-01-31T02:42:40.289Z,3
2023-01-31T02:43:40.327Z,3
2023-01-31T02:44:40.300Z,3
2023-01-31T02:45:40.412Z,2
2023-01-31T02:46:40.288Z,3
2023-01-31T02:47:40.321Z,3
2023-01-31T02:48:40.292Z,3
2023-01-31T02:49:40.309Z,2
2023-01-31T02:50:40.286Z,2
2023-01-31T02:51:40.299Z,2
2023-01-31T02:52:40.383Z,3
2023-01-31T02:53:40.298Z,3
2023-01-31T02:54:40.320Z,2
2023-01-31T02:55:40.299Z,3
2023-01-31T02:56:40.295Z,2
2023-01-31T02:57:40.305Z,3
2023-01-31T02:58:40.611Z,3
2023-01-31T02:59:40.312Z,2
2023-01-31T03:00:40.481Z,2
2023-01-31T03:01:40.370Z,2
2023-01-31T03:02:40.361Z,3
2023-01-31T03:03:40.295Z,2
2023-01-31T03:04:40.313Z,3
2023-01-31T03:05:40.290Z,3
2023-01-31T03:06:40.290Z,3
2023-01-31T03:07:40.325Z,2
2023-01-31T03:08:40.304Z,3
2023-01-31T03:09:40.348Z,3
2023-01-31T03:10:40.289Z,2
2023-01-31T03:11:40.302Z,2
2023-01-31T03:12:40.540Z,3
2023-01-31T03:13:40.308Z,3
2023-01-31T03:14:40.294Z,3
2023-01-31T03:15:40.295Z,2
2023-01-31T03:16:40.333Z,2
2023-01-31T03:17:40.310Z,3
2023-01-31T03:18:40.329Z,2
2023-01-31T03:19:40.309Z,2
2023-01-31T03:20:40.302Z,2
2023-01-31T03:21:40.302Z,3
2023-01-31T03:22:40.294Z,2
2023-01-31T03:23:40.294Z,2
2023-01-31T03:24:40.346Z,2
2023-01-31T03:25:40.307Z,3
2023-01-31T03:26:40.363Z,3
2023-01-31T03:27:40.334Z,2
2023-01-31T03:28:40.286Z,2
2023-01-31T03:29:40.307Z,2
2023-01-31T03:30:40.456Z,3
2023-01-31T03:31:40.460Z,2
2023-01-31T03:32:40.302Z,2
2023-01-31T03:33:40.300Z,2
2023-01-31T03:34:40.307Z,2
2023-01-31T03:35:40.299Z,2
2023-01-31T03:36:40.315Z,2
2023-01-31T03:37:40.309Z,2
2023-01-31T03:38:40.303Z,2
2023-01-31T03:39:40.326Z,2
2023-01-31T03:40:40.301Z,2
2023-01-31T03:41:40.283Z,2
2023-01-31T03:42:40.327Z,2
2023-01-31T03:43:40.675Z,2
2023-01-31T03:44:40.301Z,2
2023-01-31T03:45:40.303Z,2
2023-01-31T03:46:40.295Z,2
2023-01-31T03:47:40.296Z,2
2023-01-31T03:48:40.284Z,2
2023-01-31T03:49:40.339Z,2
2023-01-31T03:50:40.299Z,2
2023-01-31T03:51:40.292Z,2
2023-01-31T03:52:40.285Z,2
2023-01-31T03:53:40.282Z,2
2023-01-31T03:54:40.328Z,2
2023-01-31T03:55:40.311Z,2
2023-01-31T03:56:40.306Z,2
2023-01-31T03:57:40.333Z,2
2023-01-31T03:58:40.289Z,2
2023-01-31T03:59:40.316Z,2
2023-01-31T04:00:40.297Z,2
2023-01-31T04:01:40.318Z,2
2023-01-31T04:02:40.322Z,2
2023-01-31T04:03:40.308Z,2
2023-01-31T04:04:40.288Z,2
2023-01-31T04:05:40.297Z,2
2023-01-31T04:06:40.302Z,3
2023-01-31T04:07:40.292Z,2
2023-01-31T04:08:40.302Z,2
2023-01-31T04:09:40.296Z,2
2023-01-31T04:10:40.308Z,2
2023-01-31T04:11:40.290Z,2
2023-01-31T04:12:40.331Z,2
2023-01-31T04:13:40.298Z,2
2023-01-31T04:14:40.291Z,2
2023-01-31T04:15:40.322Z,2
2023-01-31T04:16:40.297Z,2
2023-01-31T04:17:40.281Z,2
2023-01-31T04:18:40.333Z,3
2023-01-31T04:19:40.296Z,3
2023-01-31T04:20:40.345Z,3
2023-01-31T04:21:40.294Z,3
2023-01-31T04:22:40.288Z,3
2023-01-31T04:23:40.356Z,2
2023-01-31T04:24:40.314Z,2
2023-01-31T04:26:40.368Z,2
2023-01-31T04:27:40.291Z,2
2023-01-31T04:28:40.291Z,2
2023-01-31T04:29:40.294Z,3
2023-01-31T04:30:40.283Z,3
2023-01-31T04:31:40.487Z,2
2023-01-31T04:32:40.289Z,2
2023-01-31T04:33:40.292Z,2
2023-01-31T04:34:40.305Z,2
2023-01-31T04:35:40.294Z,2
2023-01-31T04:36:40.288Z,3
2023-01-31T04:37:40.306Z,2
2023-01-31T04:38:40.296Z,3
2023-01-31T04:39:40.313Z,3
2023-01-31T04:40:40.300Z,2
2023-01-31T04:41:40.289Z,3
2023-01-31T04:42:40.285Z,2
2023-01-31T04:43:40.280Z,2
2023-01-31T04:44:40.291Z,2
2023-01-31T04:45:40.286Z,2
2023-01-31T04:46:40.399Z,2
2023-01-31T04:47:40.289Z,2
2023-01-31T04:48:40.295Z,2
2023-01-31T04:49:40.309Z,2
2023-01-31T04:50:40.311Z,2
2023-01-31T04:51:40.302Z,2
2023-01-31T04:52:40.286Z,3
2023-01-31T04:53:40.274Z,2
2023-01-31T04:54:40.282Z,2
2023-01-31T04:55:40.323Z,2
2023-01-31T04:56:40.282Z,2
2023-01-31T04:57:40.282Z,2
2023-01-31T04:58:40.298Z,2
2023-01-31T04:59:40.302Z,2
2023-01-31T05:00:40.296Z,2
2023-01-31T05:01:40.286Z,2
2023-01-31T05:02:40.304Z,2
2023-01-31T05:03:40.303Z,2
2023-01-31T05:04:40.282Z,2
2023-01-31T05:05:40.297Z,2
2023-01-31T05:06:40.283Z,2
2023-01-31T05:07:40.293Z,2
2023-01-31T05:08:40.282Z,2
2023-01-31T05:09:40.290Z,2
2023-01-31T05:10:40.277Z,2
2023-01-31T05:11:40.293Z,2
2023-01-31T05:12:40.281Z,2
2023-01-31T05:13:40.280Z,2
2023-01-31T05:14:40.284Z,2
2023-01-31T05:15:40.293Z,2
2023-01-31T05:16:40.321Z,2
2023-01-31T05:17:40.322Z,3
2023-01-31T05:18:40.329Z,2
2023-01-31T05:19:40.282Z,2
2023-01-31T05:20:40.295Z,2
2023-01-31T05:21:40.308Z,2
2023-01-31T05:22:40.319Z,2
2023-01-31T05:23:40.281Z,3
2023-01-31T05:24:40.301Z,3
2023-01-31T05:25:40.298Z,2
2023-01-31T05:26:40.343Z,3
2023-01-31T05:27:40.271Z,2
2023-01-31T05:28:40.288Z,2
2023-01-31T05:29:40.284Z,3
2023-01-31T05:30:40.366Z,3
2023-01-31T05:31:40.390Z,4
2023-01-31T05:32:40.275Z,3
2023-01-31T05:33:40.274Z,3
2023-01-31T05:34:40.300Z,4
2023-01-31T05:35:40.279Z,3
2023-01-31T05:36:40.279Z,4
2023-01-31T05:37:40.273Z,4
2023-01-31T05:38:40.277Z,4
2023-01-31T05:39:40.284Z,4
2023-01-31T05:40:40.305Z,4
2023-01-31T05:41:40.283Z,4
2023-01-31T05:42:40.295Z,4
2023-01-31T05:43:40.324Z,4
2023-01-31T05:44:40.276Z,3
2023-01-31T05:45:40.329Z,3
2023-01-31T05:46:40.286Z,4
2023-01-31T05:47:40.293Z,3
2023-01-31T05:48:40.285Z,4
2023-01-31T05:49:40.277Z,3
2023-01-31T05:50:40.270Z,3
2023-01-31T05:51:40.296Z,4
2023-01-31T05:52:40.288Z,4
2023-01-31T05:53:40.314Z,3
2023-01-31T05:54:40.280Z,4
2023-01-31T05:55:40.324Z,3
2023-01-31T05:56:40.306Z,4
2023-01-31T05:57:40.284Z,4
2023-01-31T05:58:40.272Z,4
2023-01-31T05:59:40.283Z,3
2023-01-31T06:00:40.275Z,4
2023-01-31T06:01:40.309Z,4
2023-01-31T06:02:40.277Z,4
2023-01-31T06:03:40.279Z,4
2023-01-31T06:04:40.286Z,4
2023-01-31T06:05:40.301Z,4
2023-01-31T06:06:40.315Z,4
2023-01-31T06:07:40.302Z,4
2023-01-31T06:08:40.278Z,4
2023-01-31T06:09:40.287Z,4
2023-01-31T06:10:40.297Z,4
2023-01-31T06:11:40.297Z,4
2023-01-31T06:12:40.306Z,4
2023-01-31T06:13:40.286Z,4
2023-01-31T06:14:40.372Z,4
2023-01-31T06:15:40.292Z,4
2023-01-31T06:16:40.539Z,5
2023-01-31T06:17:40.272Z,4
2023-01-31T06:18:40.275Z,5
2023-01-31T06:19:40.367Z,4
2023-01-31T06:20:40.291Z,4
2023-01-31T06:21:40.299Z,4
2023-01-31T06:22:40.302Z,4
2023-01-31T06:23:40.290Z,5
2023-01-31T06:24:40.314Z,4
2023-01-31T06:25:40.284Z,5
2023-01-31T06:26:40.380Z,4
2023-01-31T06:27:40.297Z,4
2023-01-31T06:28:40.291Z,4
2023-01-31T06:29:40.279Z,5
2023-01-31T06:30:40.382Z,4
2023-01-31T06:31:40.409Z,4
2023-01-31T06:32:40.268Z,4
2023-01-31T06:33:47.032Z,5
2023-01-31T06:34:40.274Z,4
2023-01-31T06:35:40.292Z,4
2023-01-31T06:36:40.297Z,5
2023-01-31T06:37:40.284Z,5
2023-01-31T06:38:40.277Z,4
2023-01-31T06:39:40.275Z,4
2023-01-31T06:40:40.300Z,5
2023-01-31T06:41:40.290Z,5
2023-01-31T06:42:40.317Z,5
2023-01-31T06:43:40.358Z,5
2023-01-31T06:44:40.283Z,5
2023-01-31T06:45:40.404Z,5
2023-01-31T06:46:40.282Z,6
2023-01-31T06:47:40.322Z,5
2023-01-31T06:48:40.402Z,4
2023-01-31T06:49:40.280Z,5
2023-01-31T06:50:40.276Z,5
2023-01-31T06:51:40.270Z,5
2023-01-31T06:52:40.290Z,4
2023-01-31T06:53:40.263Z,4
2023-01-31T06:54:40.282Z,4
2023-01-31T06:55:40.302Z,5
2023-01-31T06:56:40.303Z,5
2023-01-31T06:57:40.289Z,5
2023-01-31T06:58:40.268Z,4
2023-01-31T06:59:40.277Z,4
2023-01-31T07:00:40.271Z,4
2023-01-31T07:01:40.333Z,5
2023-01-31T07:02:40.284Z,4
2023-01-31T07:03:40.284Z,4
2023-01-31T07:04:40.273Z,4
2023-01-31T07:05:40.281Z,4
2023-01-31T07:06:40.274Z,4
2023-01-31T07:07:40.310Z,4
2023-01-31T07:08:40.289Z,4
2023-01-31T07:09:40.296Z,4
2023-01-31T07:10:40.277Z,4
2023-01-31T07:11:40.273Z,4
2023-01-31T07:12:40.278Z,4
2023-01-31T07:13:40.273Z,4
2023-01-31T07:14:40.274Z,4
2023-01-31T07:15:40.315Z,4
2023-01-31T07:16:40.277Z,4
2023-01-31T07:17:40.296Z,4
2023-01-31T07:18:40.265Z,4
2023-01-31T07:19:40.273Z,4
2023-01-31T07:20:40.275Z,4
2023-01-31T07:21:40.263Z,5
2023-01-31T07:22:40.315Z,6
2023-01-31T07:23:40.276Z,6
2023-01-31T07:24:40.274Z,6
2023-01-31T07:25:40.272Z,12
2023-01-31T07:26:40.325Z,18
2023-01-31T07:27:40.320Z,20
2023-01-31T07:28:40.294Z,38
2023-01-31T07:29:40.273Z,48
2023-01-31T07:30:40.385Z,33
2023-01-31T07:31:40.279Z,18
2023-01-31T07:32:40.277Z,9
2023-01-31T07:33:40.272Z,7
2023-01-31T07:34:40.269Z,6
2023-01-31T07:35:40.451Z,5
2023-01-31T07:36:40.269Z,5
2023-01-31T07:37:40.266Z,6
2023-01-31T07:38:40.304Z,5
2023-01-31T07:39:40.266Z,5
2023-01-31T07:40:40.323Z,5
2023-01-31T07:41:40.290Z,5
2023-01-31T07:42:40.275Z,5
2023-01-31T07:43:40.272Z,5
2023-01-31T07:44:40.277Z,5
2023-01-31T07:45:40.455Z,5
2023-01-31T07:46:40.288Z,5
2023-01-31T07:47:40.267Z,7
2023-01-31T07:48:40.296Z,6
2023-01-31T07:49:40.265Z,5
2023-01-31T07:50:40.278Z,5
2023-01-31T07:51:40.266Z,5
2023-01-31T07:52:40.870Z,5
2023-01-31T07:53:40.286Z,5
2023-01-31T07:54:40.266Z,5
2023-01-31T07:55:40.386Z,5
2023-01-31T07:56:40.279Z,5
2023-01-31T07:57:40.300Z,5
2023-01-31T07:58:40.406Z,5
2023-01-31T07:59:40.450Z,4
2023-01-31T08:00:40.319Z,4
2023-01-31T08:01:40.338Z,4
2023-01-31T08:02:40.262Z,4
2023-01-31T08:03:40.416Z,4
2023-01-31T08:04:40.283Z,4
2023-01-31T08:05:40.375Z,4
2023-01-31T08:06:40.305Z,4
2023-01-31T08:07:40.632Z,4
2023-01-31T08:08:40.296Z,4
2023-01-31T08:09:40.497Z,4
2023-01-31T08:10:40.288Z,4
2023-01-31T08:11:40.634Z,4
2023-01-31T08:12:40.362Z,3
2023-01-31T08:13:40.527Z,3
2023-01-31T08:14:40.316Z,4
2023-01-31T08:15:40.336Z,3
2023-01-31T08:16:40.292Z,4
2023-01-31T08:17:40.266Z,3
2023-01-31T08:18:40.293Z,4
2023-01-31T08:19:40.268Z,4
2023-01-31T08:20:40.266Z,4
2023-01-31T08:21:40.265Z,4
2023-01-31T08:22:40.280Z,4
2023-01-31T08:23:40.305Z,4
2023-01-31T08:24:40.275Z,4
2023-01-31T08:25:40.271Z,4
2023-01-31T08:26:40.350Z,4
2023-01-31T08:27:40.260Z,4
2023-01-31T08:28:40.317Z,3
2023-01-31T08:29:40.265Z,4
2023-01-31T08:30:40.326Z,4
2023-01-31T08:31:40.414Z,4
2023-01-31T08:32:40.267Z,4
2023-01-31T08:33:40.276Z,4
2023-01-31T08:34:40.283Z,4
2023-01-31T08:35:40.312Z,4
2023-01-31T08:36:40.314Z,4
2023-01-31T08:37:40.270Z,4
2023-01-31T08:38:40.400Z,4
2023-01-31T08:39:40.283Z,4
2023-01-31T08:40:40.277Z,4
2023-01-31T08:41:40.286Z,4
2023-01-31T08:42:40.275Z,4
2023-01-31T08:43:54.297Z,4
2023-01-31T08:44:40.281Z,4
2023-01-31T08:45:40.291Z,5
2023-01-31T08:46:40.326Z,6
2023-01-31T08:47:40.314Z,5
2023-01-31T08:48:40.298Z,4
2023-01-31T08:49:40.302Z,5
2023-01-31T08:50:40.690Z,4
2023-01-31T08:51:40.278Z,5
2023-01-31T08:52:47.033Z,5
2023-01-31T08:53:40.279Z,6
2023-01-31T08:54:40.273Z,6
2023-01-31T08:55:40.307Z,5
2023-01-31T08:56:40.298Z,5
2023-01-31T08:57:52.646Z,7
2023-01-31T08:58:40.321Z,6
2023-01-31T08:59:40.651Z,4
2023-01-31T09:00:40.660Z,4
2023-01-31T09:01:40.716Z,4
2023-01-31T09:02:40.818Z,3
2023-01-31T09:03:40.309Z,3
2023-01-31T09:04:40.304Z,3
2023-01-31T09:05:40.288Z,4
2023-01-31T09:06:40.285Z,4
2023-01-31T09:07:40.304Z,4
2023-01-31T09:08:40.276Z,4
2023-01-31T09:09:40.310Z,4
2023-01-31T09:10:40.265Z,3
2023-01-31T09:11:40.288Z,4
2023-01-31T09:12:40.279Z,3
2023-01-31T09:13:40.307Z,3
2023-01-31T09:14:40.281Z,4
2023-01-31T09:15:40.283Z,3
2023-01-31T09:16:42.491Z,3
2023-01-31T09:17:40.337Z,4
2023-01-31T09:18:40.275Z,3
2023-01-31T09:19:40.275Z,4
2023-01-31T09:20:40.269Z,3
2023-01-31T09:21:40.339Z,3
2023-01-31T09:22:40.275Z,3
2023-01-31T09:23:42.554Z,3
2023-01-31T09:24:40.269Z,4
2023-01-31T09:25:46.854Z,3
2023-01-31T09:26:40.421Z,3
2023-01-31T09:27:40.275Z,3
2023-01-31T09:28:40.286Z,3
2023-01-31T09:29:40.273Z,4
2023-01-31T09:30:40.422Z,3
2023-01-31T09:31:40.332Z,3
2023-01-31T09:32:40.279Z,3
2023-01-31T09:33:40.293Z,3
2023-01-31T09:34:40.283Z,3
2023-01-31T09:35:40.278Z,3
2023-01-31T09:36:40.278Z,3
2023-01-31T09:37:40.274Z,3
2023-01-31T09:38:40.324Z,3
2023-01-31T09:39:40.307Z,3
2023-01-31T09:40:40.328Z,3
2023-01-31T09:41:40.300Z,3
2023-01-31T09:42:40.285Z,3
2023-01-31T09:43:40.281Z,3
2023-01-31T09:44:40.291Z,3
2023-01-31T09:45:40.280Z,2
2023-01-31T09:46:40.305Z,3
2023-01-31T09:47:40.280Z,3
2023-01-31T09:48:40.281Z,3
2023-01-31T09:49:40.347Z,3
2023-01-31T09:50:40.303Z,3
2023-01-31T09:53:40.285Z,2
2023-01-31T09:54:40.275Z,3
2023-01-31T09:55:40.282Z,3
2023-01-31T09:56:40.306Z,3
2023-01-31T09:57:40.288Z,3
2023-01-31T09:58:40.281Z,3
2023-01-31T09:59:40.329Z,3
2023-01-31T10:00:40.289Z,2
2023-01-31T10:01:40.298Z,3
2023-01-31T10:02:40.293Z,3
2023-01-31T10:03:40.493Z,4
2023-01-31T10:04:40.269Z,3
2023-01-31T10:05:40.266Z,3
2023-01-31T10:06:40.280Z,3
2023-01-31T10:07:40.273Z,4
2023-01-31T10:08:40.293Z,4
2023-01-31T10:09:40.287Z,4
2023-01-31T10:10:40.298Z,3
2023-01-31T10:11:40.293Z,3
2023-01-31T10:12:40.271Z,3
2023-01-31T10:13:40.286Z,4
2023-01-31T10:14:40.282Z,3
2023-01-31T10:15:40.282Z,3
2023-01-31T10:16:40.270Z,3
2023-01-31T10:17:40.304Z,3
2023-01-31T10:18:40.283Z,3
2023-01-31T10:19:40.307Z,5
2023-01-31T10:20:40.279Z,5
2023-01-31T10:21:40.257Z,4
2023-01-31T10:22:40.280Z,4
2023-01-31T10:23:40.272Z,3
2023-01-31T10:24:40.265Z,3
2023-01-31T10:25:40.288Z,3
2023-01-31T10:26:40.340Z,3
2023-01-31T10:27:40.282Z,3
2023-01-31T10:28:40.291Z,3
2023-01-31T10:29:40.278Z,3
2023-01-31T10:30:40.284Z,3
2023-01-31T10:31:42.858Z,2
2023-01-31T10:32:40.290Z,3
2023-01-31T10:33:40.274Z,2
2023-01-31T10:34:40.268Z,2
2023-01-31T10:35:40.284Z,3
2023-01-31T10:36:40.272Z,3
2023-01-31T10:37:40.286Z,3
2023-01-31T10:38:40.364Z,3
2023-01-31T10:39:40.281Z,3
2023-01-31T10:40:40.296Z,2
2023-01-31T10:41:40.277Z,3
2023-01-31T10:42:40.279Z,3
2023-01-31T10:43:40.948Z,3
2023-01-31T10:44:40.273Z,3
2023-01-31T10:45:40.318Z,3
2023-01-31T10:46:40.285Z,3
2023-01-31T10:47:40.279Z,3
2023-01-31T10:48:40.275Z,3
2023-01-31T10:49:40.283Z,3
2023-01-31T10:50:40.300Z,3
2023-01-31T10:51:40.276Z,3
2023-01-31T10:52:40.272Z,3
2023-01-31T10:53:40.291Z,3
2023-01-31T10:54:40.287Z,3
2023-01-31T10:55:40.535Z,3
2023-01-31T10:56:40.292Z,3
2023-01-31T10:57:40.751Z,3
2023-01-31T10:59:40.270Z,3
2023-01-31T11:00:40.282Z,4
2023-01-31T11:01:40.324Z,3
2023-01-31T11:02:40.335Z,4
2023-01-31T11:03:40.318Z,4
2023-01-31T11:04:40.300Z,4
2023-01-31T11:05:40.269Z,5
2023-01-31T11:06:40.259Z,5
2023-01-31T11:07:40.273Z,4
2023-01-31T11:08:40.408Z,3
2023-01-31T11:09:40.278Z,3
2023-01-31T11:10:40.272Z,3
2023-01-31T11:11:40.284Z,3
2023-01-31T11:12:40.274Z,3
2023-01-31T11:13:40.285Z,3
2023-01-31T11:14:40.272Z,3
2023-01-31T11:15:40.280Z,3
2023-01-31T11:16:40.351Z,3
2023-01-31T11:17:40.282Z,3
2023-01-31T11:18:40.271Z,3
2023-01-31T11:19:40.283Z,3
2023-01-31T11:20:40.283Z,5
2023-01-31T11:21:40.278Z,5
2023-01-31T11:22:40.297Z,4
2023-01-31T11:23:40.324Z,4
2023-01-31T11:24:40.279Z,4
2023-01-31T11:25:40.284Z,7
2023-01-31T11:26:40.403Z,8
2023-01-31T11:27:40.313Z,7
2023-01-31T11:28:40.323Z,8
2023-01-31T11:29:40.275Z,12
2023-01-31T11:30:40.298Z,8
2023-01-31T11:31:40.337Z,6
2023-01-31T11:32:40.284Z,4
2023-01-31T11:33:40.275Z,5
2023-01-31T11:34:40.293Z,4
2023-01-31T11:35:40.287Z,4
2023-01-31T11:36:40.289Z,4
2023-01-31T11:37:40.254Z,4
2023-01-31T11:38:40.329Z,4
2023-01-31T11:39:40.268Z,4
2023-01-31T11:40:40.281Z,4
2023-01-31T11:41:40.300Z,4
2023-01-31T11:42:40.270Z,3
2023-01-31T11:43:42.009Z,5
2023-01-31T11:44:40.285Z,4
2023-01-31T11:45:40.270Z,3
2023-01-31T11:46:40.264Z,3
2023-01-31T11:47:40.287Z,3
2023-01-31T11:48:40.279Z,3
2023-01-31T11:49:40.299Z,3
2023-01-31T11:50:40.269Z,3
2023-01-31T11:51:40.284Z,3
2023-01-31T11:52:40.268Z,3
2023-01-31T11:53:40.280Z,3
2023-01-31T11:54:40.275Z,5
2023-01-31T11:55:40.262Z,5
2023-01-31T11:56:40.306Z,6
2023-01-31T11:57:40.272Z,9
2023-01-31T11:58:40.264Z,7
2023-01-31T11:59:40.297Z,11
2023-01-31T12:00:40.264Z,6
2023-01-31T12:01:40.260Z,6
2023-01-31T12:02:40.451Z,6
2023-01-31T12:03:51.798Z,5
2023-01-31T12:04:40.265Z,4
2023-01-31T12:05:40.291Z,4
2023-01-31T12:06:40.277Z,3
2023-01-31T12:07:40.292Z,3
2023-01-31T12:08:40.285Z,3
2023-01-31T12:09:40.286Z,4
2023-01-31T12:10:40.261Z,4
2023-01-31T12:11:40.303Z,3
2023-01-31T12:12:40.270Z,3
2023-01-31T12:13:40.253Z,3
2023-01-31T12:14:40.272Z,3
2023-01-31T12:15:40.278Z,3
2023-01-31T12:16:40.305Z,3
2023-01-31T12:17:40.265Z,3
2023-01-31T12:18:40.282Z,3
2023-01-31T12:19:40.285Z,3
2023-01-31T12:20:40.279Z,3
2023-01-31T12:21:40.275Z,3
2023-01-31T12:22:40.276Z,3
2023-01-31T12:23:40.269Z,3
2023-01-31T12:24:40.261Z,3
2023-01-31T12:25:40.266Z,3
2023-01-31T12:26:40.347Z,3
2023-01-31T12:27:40.312Z,3
2023-01-31T12:28:40.263Z,5
2023-01-31T12:29:40.263Z,9
2023-01-31T12:30:40.301Z,7
2023-01-31T12:31:40.286Z,11
2023-01-31T12:32:40.272Z,11
2023-01-31T12:33:40.267Z,8
2023-01-31T12:34:58.087Z,6
2023-01-31T12:35:40.280Z,9
2023-01-31T12:36:40.302Z,8
2023-01-31T12:37:40.277Z,8
2023-01-31T12:38:40.261Z,7
2023-01-31T12:39:40.271Z,8
2023-01-31T12:40:40.291Z,8
2023-01-31T12:41:40.281Z,5
2023-01-31T12:42:40.314Z,4
2023-01-31T12:43:40.313Z,4
2023-01-31T12:44:40.263Z,4
2023-01-31T12:45:40.271Z,4
2023-01-31T12:46:40.395Z,4
2023-01-31T12:47:40.272Z,3
2023-01-31T12:48:40.281Z,3
2023-01-31T12:49:40.277Z,4
2023-01-31T12:50:40.267Z,4
2023-01-31T12:51:40.261Z,4
2023-01-31T12:52:40.311Z,4
2023-01-31T12:53:40.304Z,5
2023-01-31T12:54:40.278Z,5
2023-01-31T12:55:40.261Z,7
2023-01-31T12:56:40.287Z,8
2023-01-31T12:57:40.301Z,7
2023-01-31T12:58:40.386Z,8
2023-01-31T12:59:40.258Z,10
2023-01-31T13:00:40.310Z,9
2023-01-31T13:01:40.321Z,7
2023-01-31T13:02:40.337Z,8
2023-01-31T13:03:40.358Z,5
2023-01-31T13:04:40.339Z,3
2023-01-31T13:05:40.279Z,3
2023-01-31T13:06:40.269Z,5
2023-01-31T13:07:40.309Z,6
2023-01-31T13:08:41.284Z,4
2023-01-31T13:09:40.252Z,4
2023-01-31T13:10:40.416Z,3
2023-01-31T13:11:40.294Z,3
2023-01-31T13:12:40.288Z,3
2023-01-31T13:13:40.547Z,3
2023-01-31T13:14:40.259Z,3
2023-01-31T13:15:40.273Z,3
2023-01-31T13:16:40.252Z,4
2023-01-31T13:17:40.279Z,4
2023-01-31T13:18:40.570Z,3
2023-01-31T13:19:40.268Z,2
2023-01-31T13:20:40.246Z,2
2023-01-31T13:21:40.261Z,2
2023-01-31T13:22:40.268Z,2
2023-01-31T13:23:40.271Z,2
2023-01-31T13:24:40.276Z,2
2023-01-31T13:25:40.256Z,2
2023-01-31T13:26:40.329Z,3
2023-01-31T13:27:40.264Z,3
2023-01-31T13:28:40.251Z,3
2023-01-31T13:29:40.498Z,3
2023-01-31T13:30:40.284Z,3
2023-01-31T13:31:40.443Z,3
2023-01-31T13:32:40.253Z,5
2023-01-31T13:33:40.271Z,4
2023-01-31T13:34:40.252Z,3
2023-01-31T13:35:40.250Z,4
2023-01-31T13:36:40.284Z,3
2023-01-31T13:37:40.270Z,4
2023-01-31T13:38:40.319Z,3
2023-01-31T13:39:40.265Z,3
2023-01-31T13:40:40.256Z,3
2023-01-31T13:41:40.291Z,3
2023-01-31T13:42:40.263Z,3
2023-01-31T13:43:40.270Z,2
2023-01-31T13:44:40.267Z,2
2023-01-31T13:45:40.260Z,3
2023-01-31T13:46:40.296Z,3
2023-01-31T13:47:40.263Z,2
2023-01-31T13:48:40.265Z,2
2023-01-31T13:49:40.271Z,3
2023-01-31T13:50:40.269Z,2
2023-01-31T13:51:40.263Z,3
2023-01-31T13:52:40.266Z,2
2023-01-31T13:53:40.541Z,3
2023-01-31T13:54:40.297Z,3
2023-01-31T13:55:40.257Z,3
2023-01-31T13:56:40.285Z,3
2023-01-31T13:57:40.270Z,3
2023-01-31T13:58:40.265Z,3
2023-01-31T13:59:40.268Z,3
2023-01-31T14:00:40.364Z,3
2023-01-31T14:01:40.285Z,3
2023-01-31T14:02:40.302Z,3
2023-01-31T14:03:40.250Z,4
2023-01-31T14:04:40.642Z,4
2023-01-31T14:05:40.267Z,4
2023-01-31T14:06:40.269Z,4
2023-01-31T14:07:40.285Z,4
2023-01-31T14:08:40.264Z,4
2023-01-31T14:09:40.312Z,3
2023-01-31T14:10:40.267Z,3
2023-01-31T14:11:40.280Z,3
2023-01-31T14:12:40.265Z,3
2023-01-31T14:13:40.262Z,4
2023-01-31T14:14:40.272Z,4
2023-01-31T14:15:40.265Z,4
2023-01-31T14:16:40.301Z,4
2023-01-31T14:17:40.259Z,4
2023-01-31T14:18:40.263Z,4
2023-01-31T14:19:40.256Z,4
2023-01-31T14:20:40.261Z,4
2023-01-31T14:21:40.278Z,4
2023-01-31T14:22:40.264Z,4
2023-01-31T14:23:40.252Z,4
2023-01-31T14:24:40.253Z,5
2023-01-31T14:25:40.257Z,4
2023-01-31T14:26:40.634Z,4
2023-01-31T14:27:40.249Z,4
2023-01-31T14:28:40.252Z,4
2023-01-31T14:29:40.261Z,5
2023-01-31T14:30:40.278Z,5
2023-01-31T14:31:40.315Z,5
2023-01-31T14:32:40.261Z,6
2023-01-31T14:33:40.271Z,5
2023-01-31T14:34:40.250Z,5
2023-01-31T14:35:40.270Z,5
2023-01-31T14:36:40.262Z,5
2023-01-31T14:37:40.266Z,6
2023-01-31T14:38:40.310Z,5
2023-01-31T14:39:40.251Z,5
2023-01-31T14:40:40.344Z,5
2023-01-31T14:41:40.273Z,6
2023-01-31T14:42:40.264Z,5
2023-01-31T14:43:40.272Z,5
2023-01-31T14:44:40.265Z,6
2023-01-31T14:45:40.319Z,5
2023-01-31T14:46:40.261Z,5
2023-01-31T14:47:40.274Z,5
2023-01-31T14:48:40.259Z,5
2023-01-31T14:49:40.258Z,5
2023-01-31T14:50:40.266Z,5
2023-01-31T14:51:40.276Z,5
2023-01-31T14:52:41.091Z,5
2023-01-31T14:53:40.267Z,5
2023-01-31T14:54:40.306Z,5